createdAt,value
2019-02-23T00:02:28.607Z,103979.66
2019-02-23T00:04:59.764Z,103978.55
2019-02-23T00:07:31.063Z,103983.49
2019-02-23T00:10:02.216Z,103987.57
2019-02-23T00:12:35.194Z,103983.09
2019-02-23T00:15:06.929Z,103980.64
2019-02-23T00:17:38.252Z,103991.38
2019-02-23T00:20:09.419Z,103979.29
2019-02-23T00:22:40.710Z,103980.73
2019-02-23T00:25:11.882Z,103995.89
2019-02-23T00:27:43.124Z,104014.05
2019-02-23T00:30:14.325Z,104024.92
2019-02-23T00:32:45.593Z,104024.52
2019-02-23T00:35:16.811Z,104034.53
2019-02-23T00:37:47.993Z,104033.38
2019-02-23T00:40:19.143Z,104029.99
2019-02-23T00:42:50.364Z,104028.84
2019-02-23T00:45:21.704Z,104019.00
2019-02-23T00:47:52.957Z,104020.95
2019-02-23T00:50:24.241Z,104018.09
2019-02-23T00:52:55.372Z,104021.70
2019-02-23T00:55:26.643Z,104018.67
2019-02-23T00:57:58.000Z,104003.41
2019-02-23T01:00:29.155Z,104006.53
2019-02-23T01:03:00.342Z,103996.87
2019-02-23T01:05:31.569Z,103982.76
2019-02-23T01:08:02.906Z,103983.84
2019-02-23T01:10:34.156Z,103973.48
2019-02-23T01:13:05.453Z,103962.55
2019-02-23T01:15:36.695Z,103964.55
2019-02-23T01:18:07.921Z,103967.29
2019-02-23T01:20:39.152Z,103963.79
2019-02-23T01:23:10.454Z,103956.37
2019-02-23T01:25:41.601Z,103949.09
2019-02-23T01:28:12.916Z,103944.05
2019-02-23T01:30:44.128Z,103954.95
2019-02-23T01:33:15.381Z,103970.30
2019-02-23T01:35:46.569Z,103976.38
2019-02-23T01:38:17.812Z,103965.81
2019-02-23T01:40:49.000Z,103963.96
2019-02-23T01:43:20.255Z,103965.05
2019-02-23T01:45:51.485Z,103962.22
2019-02-23T01:48:22.648Z,103955.73
2019-02-23T01:50:53.876Z,103944.08
2019-02-23T01:53:25.025Z,103940.38
2019-02-23T01:55:56.263Z,103931.06
2019-02-23T01:58:27.461Z,103934.19
2019-02-23T02:00:58.663Z,103928.41
2019-02-23T02:03:29.810Z,103926.41
2019-02-23T02:06:01.174Z,103917.49
2019-02-23T02:08:32.780Z,103911.72
2019-02-23T02:11:03.969Z,103911.90
2019-02-23T02:13:35.212Z,103915.19
2019-02-23T02:16:06.441Z,103910.16
2019-02-23T02:18:37.677Z,103914.64
2019-02-23T02:21:08.929Z,103909.59
2019-02-23T02:23:40.102Z,103899.03
2019-02-23T02:26:11.666Z,103891.61
2019-02-23T02:28:42.848Z,103899.17
2019-02-23T02:31:14.019Z,103881.75
2019-02-23T02:34:11.545Z,103884.13
2019-02-23T02:36:42.704Z,103880.05
2019-02-23T02:39:15.079Z,103886.31
2019-02-23T02:41:46.350Z,103891.43
2019-02-23T02:44:17.571Z,103894.66
2019-02-23T02:46:48.765Z,103892.36
2019-02-23T02:49:19.970Z,103891.80
2019-02-23T02:51:51.170Z,103883.83
2019-02-23T02:54:22.326Z,103880.99
2019-02-23T02:56:53.546Z,103873.61
2019-02-23T02:59:25.819Z,103873.96
2019-02-23T03:01:58.897Z,103867.84
2019-02-23T03:04:30.001Z,103860.46
2019-02-23T03:07:01.173Z,103852.45
2019-02-23T03:09:32.400Z,103845.22
2019-02-23T03:12:03.588Z,103845.91
2019-02-23T03:14:34.821Z,103845.15
2019-02-23T03:17:05.945Z,103849.59
2019-02-23T03:19:37.115Z,103842.36
2019-02-23T03:22:08.299Z,103842.50
2019-02-23T03:24:39.610Z,103841.34
2019-02-23T03:27:10.821Z,103833.58
2019-02-23T03:29:42.060Z,103823.02
2019-02-23T03:32:13.250Z,103834.08
2019-02-23T03:34:44.477Z,103834.57
2019-02-23T03:37:15.675Z,103833.87
2019-02-23T03:39:46.777Z,103832.16
2019-02-23T03:42:18.349Z,103836.40
2019-02-23T03:44:49.512Z,103843.22
2019-02-23T03:47:20.757Z,103854.30
2019-02-23T03:49:52.017Z,103857.59
2019-02-23T03:52:23.239Z,103860.57
2019-02-23T03:54:54.434Z,103862.77
2019-02-23T03:57:25.692Z,103862.35
2019-02-23T03:59:56.937Z,103857.88
2019-02-23T04:02:28.068Z,103852.14
2019-02-23T04:04:59.316Z,103849.34
2019-02-23T04:07:30.633Z,103844.52
2019-02-23T04:10:01.817Z,103857.46
2019-02-23T04:12:34.351Z,103863.37
2019-02-23T04:15:05.574Z,103871.28
2019-02-23T04:17:36.776Z,103859.63
2019-02-23T04:20:07.899Z,103873.27
2019-02-23T04:22:39.069Z,103876.59
2019-02-23T04:25:10.200Z,103874.70
2019-02-23T04:27:44.817Z,103879.88
2019-02-23T04:30:15.964Z,103884.50
2019-02-23T04:32:47.119Z,103892.25
2019-02-23T04:35:18.361Z,103894.28
2019-02-23T04:37:49.536Z,103891.70
2019-02-23T04:40:20.788Z,103889.81
2019-02-23T04:42:51.936Z,103891.24
2019-02-23T04:45:23.223Z,103886.80
2019-02-23T04:47:54.452Z,103892.67
2019-02-23T04:50:25.643Z,103896.34
2019-02-23T04:52:56.858Z,103891.52
2019-02-23T04:55:28.130Z,103898.72
2019-02-23T04:57:59.348Z,103897.22
2019-02-23T05:00:30.537Z,103896.27
2019-02-23T05:03:01.702Z,103900.89
2019-02-23T05:05:33.150Z,103901.80
2019-02-23T05:08:04.313Z,103911.23
2019-02-23T05:10:35.483Z,103899.73
2019-02-23T05:13:06.674Z,103901.03
2019-02-23T05:15:37.990Z,103900.43
2019-02-23T05:18:09.170Z,103901.86
2019-02-23T05:20:40.377Z,103897.08
2019-02-23T05:23:11.601Z,103892.04
2019-02-23T05:25:42.801Z,103909.55
2019-02-23T05:28:14.005Z,103913.22
2019-02-23T05:30:45.247Z,103911.72
2019-02-23T05:33:16.414Z,103909.48
2019-02-23T05:35:49.738Z,103918.66
2019-02-23T05:38:21.008Z,103925.52
2019-02-23T05:40:52.190Z,103931.17
2019-02-23T05:43:23.465Z,103930.58
2019-02-23T05:45:54.765Z,103922.39
2019-02-23T05:48:26.022Z,103919.03
2019-02-23T05:50:57.425Z,103917.50
2019-02-23T05:53:28.642Z,103920.46
2019-02-23T05:55:59.943Z,103928.70
2019-02-23T05:58:31.165Z,103935.52
2019-02-23T06:01:02.390Z,103935.91
2019-02-23T06:03:34.569Z,103929.78
2019-02-23T06:06:05.845Z,103934.02
2019-02-23T06:08:37.172Z,103931.77
2019-02-23T06:11:08.446Z,103930.13
2019-02-23T06:13:39.690Z,103943.79
2019-02-23T06:16:10.894Z,103955.05
2019-02-23T06:18:42.097Z,103943.93
2019-02-23T06:21:13.389Z,103935.57
2019-02-23T06:23:44.657Z,103945.91
2019-02-23T06:26:15.828Z,103961.81
2019-02-23T06:28:47.004Z,103970.48
2019-02-23T06:31:18.270Z,103966.17
2019-02-23T06:33:49.451Z,103973.71
2019-02-23T06:36:20.719Z,103981.81
2019-02-23T06:38:52.906Z,103971.47
2019-02-23T06:41:25.312Z,103971.47
2019-02-23T06:43:56.751Z,103974.19
2019-02-23T06:46:27.983Z,103967.73
2019-02-23T06:48:59.198Z,103976.08
2019-02-23T06:51:30.469Z,103980.88
2019-02-23T06:54:01.676Z,103981.25
2019-02-23T06:56:32.900Z,103980.88
2019-02-23T06:59:04.118Z,103983.32
2019-02-23T07:01:35.325Z,103989.09
2019-02-23T07:04:06.588Z,103993.75
2019-02-23T07:06:37.872Z,104003.27
2019-02-23T07:09:09.111Z,104005.84
2019-02-23T07:11:40.347Z,104009.94
2019-02-23T07:14:12.314Z,103998.87
2019-02-23T07:16:43.807Z,104003.91
2019-02-23T07:19:15.036Z,104013.77
2019-02-23T07:21:46.235Z,104020.66
2019-02-23T07:24:17.551Z,104008.16
2019-02-23T07:26:48.792Z,103996.39
2019-02-23T07:29:20.051Z,103998.15
2019-02-23T07:31:51.830Z,104004.48
2019-02-23T07:34:23.145Z,103997.14
2019-02-23T07:36:54.513Z,104001.45
2019-02-23T07:39:25.760Z,104004.50
2019-02-23T07:41:56.940Z,104006.09
2019-02-23T07:44:29.882Z,104010.61
2019-02-23T07:47:01.696Z,104013.87
2019-02-23T07:49:34.858Z,104014.30
2019-02-23T07:52:06.849Z,104009.20
2019-02-23T07:54:38.102Z,104003.39
2019-02-23T07:57:10.250Z,103997.88
2019-02-23T07:59:42.623Z,103996.65
2019-02-23T08:02:13.912Z,103989.87
2019-02-23T08:04:45.220Z,103980.53
2019-02-23T08:07:16.420Z,103977.66
2019-02-23T08:09:47.606Z,103978.82
2019-02-23T08:12:18.945Z,103977.80
2019-02-23T08:14:50.127Z,103977.31
2019-02-23T08:17:21.309Z,103969.02
2019-02-23T08:19:52.947Z,103947.47
2019-02-23T08:22:24.141Z,103939.41
2019-02-23T08:24:55.380Z,103947.45
2019-02-23T08:27:26.655Z,103952.91
2019-02-23T08:29:57.878Z,103950.98
2019-02-23T08:32:29.071Z,103954.05
2019-02-23T08:35:00.422Z,103941.57
2019-02-23T08:37:31.617Z,103947.27
2019-02-23T08:40:03.991Z,103956.10
2019-02-23T08:42:35.245Z,103948.80
2019-02-23T08:45:07.273Z,103937.05
2019-02-23T08:47:38.448Z,103939.91
2019-02-23T08:50:11.100Z,103949.48
2019-02-23T08:52:49.365Z,103951.63
2019-02-23T08:55:15.250Z,103941.46
2019-02-23T08:57:46.445Z,103922.42
2019-02-23T09:00:17.708Z,103926.87
2019-02-23T09:02:49.112Z,103932.50
2019-02-23T09:05:20.247Z,103936.64
2019-02-23T09:07:52.527Z,103946.62
2019-02-23T09:10:24.631Z,103944.13
2019-02-23T09:12:55.948Z,103938.84
2019-02-23T09:15:27.143Z,103928.72
2019-02-23T09:17:58.356Z,103922.86
2019-02-23T09:20:29.799Z,103917.92
2019-02-23T09:23:01.882Z,103932.09
2019-02-23T09:25:33.423Z,103934.58
2019-02-23T09:28:04.670Z,103934.82
2019-02-23T09:30:35.874Z,103945.69
2019-02-23T09:33:07.073Z,103944.28
2019-02-23T09:35:38.230Z,103945.08
2019-02-23T09:38:09.522Z,103939.41
2019-02-23T09:40:41.616Z,103931.51
2019-02-23T09:43:13.170Z,103928.80
2019-02-23T09:45:44.357Z,103913.41
2019-02-23T09:48:15.659Z,103916.71
2019-02-23T09:50:46.959Z,103920.09
2019-02-23T09:53:18.319Z,103909.81
2019-02-23T09:55:49.554Z,103906.70
2019-02-23T09:58:20.782Z,103906.80
2019-02-23T10:00:52.091Z,103906.80
2019-02-23T10:03:23.526Z,103910.02
2019-02-23T10:05:54.773Z,103921.06
2019-02-23T10:08:25.950Z,103926.32
2019-02-23T10:10:57.706Z,103936.42
2019-02-23T10:13:29.086Z,103938.89
2019-02-23T10:16:00.577Z,103940.96
2019-02-23T10:18:31.853Z,103925.64
2019-02-23T10:21:03.025Z,103931.09
2019-02-23T10:23:35.226Z,103933.74
2019-02-23T10:26:06.421Z,103935.45
2019-02-23T10:28:37.752Z,103920.28
2019-02-23T10:31:09.042Z,103908.95
2019-02-23T10:33:47.431Z,103911.59
2019-02-23T10:36:13.263Z,103914.63
2019-02-23T10:38:44.465Z,103918.38
2019-02-23T10:41:16.214Z,103911.31
2019-02-23T10:43:47.878Z,103901.70
2019-02-23T10:46:19.205Z,103901.70
2019-02-23T10:48:50.396Z,103888.53
2019-02-23T10:51:21.587Z,103883.92
2019-02-23T10:53:52.761Z,103882.64
2019-02-23T10:56:24.015Z,103882.84
2019-02-23T10:58:55.325Z,103880.28
2019-02-23T11:01:26.915Z,103868.98
2019-02-23T11:03:58.162Z,103868.64
2019-02-23T11:06:29.341Z,103865.69
2019-02-23T11:09:00.753Z,103866.42
2019-02-23T11:11:34.394Z,103869.06
2019-02-23T11:14:05.708Z,103879.31
2019-02-23T11:16:36.910Z,103880.98
2019-02-23T11:19:08.100Z,103880.07
2019-02-23T11:21:39.282Z,103873.73
2019-02-23T11:24:10.474Z,103874.48
2019-02-23T11:26:41.680Z,103867.23
2019-02-23T11:29:12.863Z,103859.59
2019-02-23T11:31:44.089Z,103857.36
2019-02-23T11:34:15.229Z,103849.16
2019-02-23T11:36:46.442Z,103845.42
2019-02-23T11:39:17.639Z,103846.13
2019-02-23T11:41:48.864Z,103846.33
2019-02-23T11:44:20.100Z,103851.17
2019-02-23T11:47:00.394Z,103853.75
2019-02-23T11:49:25.343Z,103845.31
2019-02-23T11:51:56.540Z,103837.28
2019-02-23T11:54:27.760Z,103834.10
2019-02-23T11:56:58.977Z,103835.73
2019-02-23T11:59:30.263Z,103833.13
2019-02-23T12:02:01.466Z,103834.03
2019-02-23T12:04:32.608Z,103827.64
2019-02-23T12:07:03.806Z,103814.53
2019-02-23T12:09:34.980Z,103815.42
2019-02-23T12:12:06.152Z,103815.91
2019-02-23T12:14:37.330Z,103805.98
2019-02-23T12:17:08.561Z,103796.58
2019-02-23T12:19:39.745Z,103795.02
2019-02-23T12:22:12.544Z,103788.96
2019-02-23T12:24:43.975Z,103778.56
2019-02-23T12:27:15.180Z,103768.00
2019-02-23T12:29:46.350Z,103770.14
2019-02-23T12:32:17.682Z,103766.13
2019-02-23T12:34:49.047Z,103761.68
2019-02-23T12:37:20.222Z,103751.45
2019-02-23T12:39:51.418Z,103748.85
2019-02-23T12:42:22.606Z,103749.48
2019-02-23T12:44:53.786Z,103745.97
2019-02-23T12:47:24.952Z,103745.08
2019-02-23T12:49:56.141Z,103736.84
2019-02-23T12:52:27.312Z,103738.87
2019-02-23T12:54:58.586Z,103736.23
2019-02-23T12:57:29.766Z,103739.25
2019-02-23T13:00:00.978Z,103733.05
2019-02-23T13:02:33.955Z,103726.49
2019-02-23T13:05:05.392Z,103728.85
2019-02-23T13:07:36.544Z,103717.98
2019-02-23T13:10:11.307Z,103715.80
2019-02-23T13:13:03.357Z,103714.33
2019-02-23T13:15:57.488Z,103719.31
2019-02-23T13:18:50.806Z,103719.59
2019-02-23T13:22:02.377Z,103713.78
2019-02-23T13:24:55.837Z,103714.92
2019-02-23T13:27:52.197Z,103712.91
2019-02-23T13:30:52.303Z,103697.62
2019-02-23T13:34:02.012Z,103697.91
2019-02-23T13:37:05.884Z,103702.57
2019-02-23T13:40:36.382Z,103694.96
2019-02-23T13:43:43.543Z,103689.19
2019-02-23T13:46:38.052Z,103700.42
2019-02-23T13:49:48.761Z,103690.09
2019-02-23T13:53:15.966Z,103692.92
2019-02-23T13:56:14.536Z,103683.66
2019-02-23T13:59:25.412Z,103683.92
2019-02-23T14:02:59.085Z,103689.80
2019-02-23T14:05:45.371Z,103670.92
2019-02-23T14:08:51.288Z,103656.46
2019-02-23T14:11:47.658Z,103659.42
2019-02-23T14:14:43.160Z,103673.33
2019-02-23T14:17:51.267Z,103670.40
2019-02-23T14:20:42.793Z,103662.47
2019-02-23T14:23:53.223Z,103665.99
2019-02-23T14:26:38.922Z,103655.40
2019-02-23T14:29:54.006Z,103652.35
2019-02-23T14:33:09.552Z,103656.21
2019-02-23T14:36:14.772Z,103663.80
2019-02-23T14:39:48.205Z,103672.22
2019-02-23T14:42:44.932Z,103666.50
2019-02-23T14:45:46.947Z,103666.20
2019-02-23T14:48:41.286Z,103660.34
2019-02-23T14:52:15.294Z,103665.66
2019-02-23T14:55:17.141Z,103656.50
2019-02-23T14:58:28.811Z,103647.53
2019-02-23T15:01:32.197Z,103635.56
2019-02-23T15:04:49.899Z,103636.74
2019-02-23T15:08:16.708Z,103625.05
2019-02-23T15:11:35.336Z,103629.30
2019-02-23T15:14:44.673Z,103635.27
2019-02-23T15:17:51.445Z,103636.16
2019-02-23T15:21:16.657Z,103631.29
2019-02-23T15:24:07.976Z,103630.16
2019-02-23T15:27:17.234Z,103622.00
2019-02-23T15:30:18.781Z,103626.34
2019-02-23T15:33:33.877Z,103618.71
2019-02-23T15:36:45.422Z,103626.56
2019-02-23T15:40:05.524Z,103621.81
2019-02-23T15:42:55.136Z,103634.33
2019-02-23T15:45:59.338Z,103639.05
2019-02-23T15:48:59.889Z,103639.22
2019-02-23T15:51:31.534Z,103632.11
2019-02-23T15:54:02.906Z,103633.69
2019-02-23T15:56:34.126Z,103634.64
2019-02-23T15:59:06.119Z,103630.86
2019-02-23T16:01:38.140Z,103631.78
2019-02-23T16:04:09.415Z,103624.52
2019-02-23T16:06:40.854Z,103632.52
2019-02-23T16:09:12.134Z,103638.25
2019-02-23T16:11:45.239Z,103635.31
2019-02-23T16:14:16.385Z,103639.87
2019-02-23T16:16:47.951Z,103648.38
2019-02-23T16:19:21.142Z,103647.27
2019-02-23T16:21:53.049Z,103654.39
2019-02-23T16:24:24.673Z,103653.04
2019-02-23T16:26:56.188Z,103648.41
2019-02-23T16:29:27.576Z,103644.02
2019-02-23T16:31:58.788Z,103649.55
2019-02-23T16:34:30.019Z,103645.51
2019-02-23T16:37:01.178Z,103641.50
2019-02-23T16:39:33.368Z,103644.95
2019-02-23T16:42:04.625Z,103644.22
2019-02-23T16:44:35.936Z,103652.12
2019-02-23T16:47:07.186Z,103652.95
2019-02-23T16:49:38.574Z,103652.44
2019-02-23T16:52:09.850Z,103650.22
2019-02-23T16:54:41.103Z,103651.97
2019-02-23T16:57:12.348Z,103651.05
2019-02-23T16:59:44.663Z,103640.96
2019-02-23T17:02:15.842Z,103639.82
2019-02-23T17:04:53.605Z,103642.77
2019-02-23T17:07:20.047Z,103649.07
2019-02-23T17:09:51.228Z,103651.44
2019-02-23T17:12:22.496Z,103649.66
2019-02-23T17:14:54.020Z,103656.36
2019-02-23T17:17:25.211Z,103655.19
2019-02-23T17:19:56.644Z,103657.54
2019-02-23T17:22:28.118Z,103662.16
2019-02-23T17:24:59.329Z,103658.13
2019-02-23T17:27:36.857Z,103671.90
2019-02-23T17:30:04.626Z,103671.58
2019-02-23T17:32:35.935Z,103671.86
2019-02-23T17:35:07.222Z,103664.45
2019-02-23T17:37:38.462Z,103661.91
2019-02-23T17:40:09.910Z,103660.48
2019-02-23T17:42:41.130Z,103654.17
2019-02-23T17:45:13.356Z,103650.70
2019-02-23T17:47:44.653Z,103646.64
2019-02-23T17:50:15.849Z,103657.16
2019-02-23T17:52:47.051Z,103660.74
2019-02-23T17:55:18.325Z,103652.43
2019-02-23T17:57:49.612Z,103645.95
2019-02-23T18:00:23.626Z,103645.98
2019-02-23T18:02:55.076Z,103644.36
2019-02-23T18:05:26.235Z,103643.12
2019-02-23T18:07:57.580Z,103645.57
2019-02-23T18:10:28.733Z,103651.41
2019-02-23T18:13:00.026Z,103648.85
2019-02-23T18:15:31.267Z,103653.16
2019-02-23T18:18:02.617Z,103647.21
2019-02-23T18:20:34.049Z,103656.73
2019-02-23T18:23:05.536Z,103655.47
2019-02-23T18:25:36.914Z,103648.80
2019-02-23T18:28:08.367Z,103638.39
2019-02-23T18:30:39.550Z,103634.87
2019-02-23T18:33:10.917Z,103639.92
2019-02-23T18:35:42.229Z,103635.25
2019-02-23T18:38:13.435Z,103631.91
2019-02-23T18:40:44.813Z,103633.05
2019-02-23T18:43:16.159Z,103628.22
2019-02-23T18:45:47.786Z,103624.72
2019-02-23T18:48:19.367Z,103621.55
2019-02-23T18:50:50.720Z,103622.87
2019-02-23T18:53:22.031Z,103622.89
2019-02-23T18:55:53.427Z,103612.66
2019-02-23T18:58:24.659Z,103610.43
2019-02-23T19:00:55.898Z,103609.50
2019-02-23T19:03:27.156Z,103613.25
2019-02-23T19:05:58.412Z,103614.92
2019-02-23T19:08:29.733Z,103614.57
2019-02-23T19:11:01.031Z,103614.22
2019-02-23T19:13:33.296Z,103608.08
2019-02-23T19:16:05.653Z,103607.32
2019-02-23T19:18:36.918Z,103601.76
2019-02-23T19:21:08.146Z,103601.00
2019-02-23T19:23:39.350Z,103600.08
2019-02-23T19:26:10.720Z,103599.72
2019-02-23T19:28:43.361Z,103601.03
2019-02-23T19:31:14.901Z,103600.27
2019-02-23T19:33:47.743Z,103596.01
2019-02-23T19:36:20.222Z,103599.16
2019-02-23T19:38:51.454Z,103598.44
2019-02-23T19:41:22.725Z,103597.69
2019-02-23T19:43:54.095Z,103597.69
2019-02-23T19:46:25.596Z,103607.34
2019-02-23T19:48:56.789Z,103600.13
2019-02-23T19:51:27.985Z,103602.33
2019-02-23T19:53:59.174Z,103600.48
2019-02-23T19:56:31.831Z,103606.24
2019-02-23T19:59:03.314Z,103603.81
2019-02-23T20:01:35.685Z,103592.50
2019-02-23T20:04:06.965Z,103593.98
2019-02-23T20:06:38.232Z,103600.28
2019-02-23T20:09:09.409Z,103596.95
2019-02-23T20:11:42.789Z,103603.82
2019-02-23T20:14:14.180Z,103609.56
2019-02-23T20:16:45.370Z,103595.83
2019-02-23T20:19:16.680Z,103595.83
2019-02-23T20:21:47.921Z,103597.31
2019-02-23T20:24:19.172Z,103593.59
2019-02-23T20:26:55.638Z,103602.87
2019-02-23T20:29:24.509Z,103603.41
2019-02-23T20:31:55.799Z,103612.16
2019-02-23T20:34:27.090Z,103612.16
2019-02-23T20:36:58.410Z,103615.69
2019-02-23T20:39:29.673Z,103610.84
2019-02-23T20:42:00.856Z,103606.93
2019-02-23T20:44:32.299Z,103603.21
2019-02-23T20:47:03.431Z,103605.05
2019-02-23T20:49:35.756Z,103604.68
2019-02-23T20:52:08.099Z,103598.35
2019-02-23T20:54:39.518Z,103596.69
2019-02-23T20:57:14.048Z,103600.77
2019-02-23T20:59:43.615Z,103603.90
2019-02-23T21:02:14.832Z,103603.17
2019-02-23T21:04:46.025Z,103599.81
2019-02-23T21:07:17.248Z,103595.72
2019-02-23T21:09:48.432Z,103588.09
2019-02-23T21:12:21.400Z,103584.73
2019-02-23T21:14:53.278Z,103587.91
2019-02-23T21:17:24.470Z,103581.57
2019-02-23T21:19:55.738Z,103583.60
2019-02-23T21:22:26.931Z,103585.66
2019-02-23T21:24:58.207Z,103587.12
2019-02-23T21:27:29.672Z,103583.77
2019-02-23T21:30:01.068Z,103581.16
2019-02-23T21:32:32.554Z,103581.16
2019-02-23T21:35:04.034Z,103582.80
2019-02-23T21:37:36.855Z,103582.80
2019-02-23T21:40:08.236Z,103580.59
2019-02-23T21:42:40.751Z,103581.49
2019-02-23T21:45:12.065Z,103577.98
2019-02-23T21:47:43.462Z,103577.40
2019-02-23T21:50:14.700Z,103575.33
2019-02-23T21:52:47.441Z,103571.06
2019-02-23T21:55:19.005Z,103571.06
2019-02-23T21:57:50.388Z,103583.87
2019-02-23T22:00:21.591Z,103572.53
2019-02-23T22:02:53.738Z,103574.16
2019-02-23T22:05:25.704Z,103574.16
2019-02-23T22:07:58.006Z,103587.33
2019-02-23T22:10:30.423Z,103587.33
2019-02-23T22:13:04.090Z,103600.73
2019-02-23T22:15:35.525Z,103600.89
2019-02-23T22:18:06.659Z,103604.61
2019-02-23T22:20:37.803Z,103616.84
2019-02-23T22:23:09.107Z,103609.61
2019-02-23T22:25:40.284Z,103611.62
2019-02-23T22:28:11.453Z,103613.45
2019-02-23T22:30:42.635Z,103612.36
2019-02-23T22:33:14.253Z,103604.52
2019-02-23T22:35:45.507Z,103601.73
2019-02-23T22:38:16.785Z,103602.84
2019-02-23T22:40:48.108Z,103597.82
2019-02-23T22:43:19.345Z,103604.70
2019-02-23T22:45:53.163Z,103608.77
2019-02-23T22:48:25.479Z,103608.55
2019-02-23T22:50:56.703Z,103607.45
2019-02-23T22:53:27.999Z,103612.05
2019-02-23T22:55:59.274Z,103605.72
2019-02-23T22:58:30.509Z,103609.42
2019-02-23T23:01:02.884Z,103603.46
2019-02-23T23:03:36.073Z,103611.42
2019-02-23T23:06:07.376Z,103606.23
2019-02-23T23:08:38.643Z,103602.53
2019-02-23T23:11:10.043Z,103588.41
2019-02-23T23:13:41.325Z,103588.41
2019-02-23T23:16:12.625Z,103594.52
2019-02-23T23:18:43.902Z,103601.38
2019-02-23T23:21:15.223Z,103601.38
2019-02-23T23:23:46.463Z,103594.67
2019-02-23T23:26:17.778Z,103591.69
2019-02-23T23:28:49.044Z,103597.98
2019-02-23T23:31:20.225Z,103590.54
2019-02-23T23:33:51.554Z,103581.27
2019-02-23T23:36:22.714Z,103584.97
2019-02-23T23:38:53.899Z,103575.11
2019-02-23T23:41:25.190Z,103574.73
2019-02-23T23:43:56.303Z,103573.95
2019-02-23T23:46:27.528Z,103575.06
2019-02-23T23:48:58.793Z,103568.19
2019-02-23T23:51:30.008Z,103570.95
2019-02-23T23:54:01.216Z,103574.07
2019-02-23T23:56:32.491Z,103564.05
2019-02-23T23:59:03.625Z,103562.02
